Time;durP1;ratioP1;P1;durP2;ratioP2;P2;SDS_P1;SDS_P2;PMS_P1;PMS_P2;Temp;Humidity;BMP_temperature;BMP_pressure;BME280_temperature;BME280_humidity;BME280_pressure;Samples;Min_cycle;Max_cycle;Signal;HPM_P1;HPM_P2
2023/09/28 00:01:12;;;;;;;0.65;0.35;;;;;;;;;;5129843;27;20047;-55
2023/09/28 00:03:38;;;;;;;0.10;0.10;;;;;;;;;;5129511;28;20067;-55
2023/09/28 00:06:04;;;;;;;0.10;0.10;;;;;;;;;;5129107;28;20174;-55
2023/09/28 00:08:29;;;;;;;0.10;0.10;;;;;;;;;;5128914;28;20136;-55
2023/09/28 00:10:55;;;;;;;0.10;0.10;;;;;;;;;;5129141;28;20054;-55
2023/09/28 00:13:21;;;;;;;0.30;0.30;;;;;;;;;;5128767;28;20093;-55
2023/09/28 00:15:46;;;;;;;0.10;0.10;;;;;;;;;;5129482;28;20653;-55
2023/09/28 00:18:12;;;;;;;0.20;0.20;;;;;;;;;;5129182;28;20641;-55
2023/09/28 00:20:38;;;;;;;0.10;0.10;;;;;;;;;;5129394;28;20051;-55
2023/09/28 00:23:04;;;;;;;0.20;0.20;;;;;;;;;;5129006;28;20047;-55
2023/09/28 00:25:29;;;;;;;0.13;0.13;;;;;;;;;;5128453;28;20488;-55
2023/09/28 00:27:56;;;;;;;0.10;0.10;;;;;;;;;;5128990;28;20047;-55
2023/09/28 00:30:22;;;;;;;0.10;0.10;;;;;;;;;;5128765;28;20419;-55
2023/09/28 00:32:49;;;;;;;0.20;0.20;;;;;;;;;;5109756;27;20124;-55
2023/09/28 00:35:15;;;;;;;0.10;0.10;;;;;;;;;;5108137;28;20051;-55
2023/09/28 00:37:41;;;;;;;0.10;0.10;;;;;;;;;;5110164;28;20056;-55
2023/09/28 00:40:18;;;;;;;0.10;0.10;;;;;;;;;;5128518;28;20495;-55
2023/09/28 00:42:44;;;;;;;0.10;0.10;;;;;;;;;;5128376;28;20044;-55
2023/09/28 00:45:10;;;;;;;0.10;0.10;;;;;;;;;;5128423;28;20051;-55
2023/09/28 00:47:38;;;;;;;0.10;0.10;;;;;;;;;;5127729;28;20061;-54
2023/09/28 00:50:05;;;;;;;;;;;;;;;;;;5129052;28;20055;-54
2023/09/28 00:52:33;;;;;;;0.10;0.10;;;;;;;;;;5128890;28;19973;-55
2023/09/28 00:54:59;;;;;;;0.10;0.10;;;;;;;;;;5128163;28;20460;-55
2023/09/28 00:57:26;;;;;;;0.10;0.10;;;;;;;;;;5128877;27;20047;-55
2023/09/28 00:59:52;;;;;;;0.10;0.10;;;;;;;;;;5108280;28;20056;-55
2023/09/28 01:02:18;;;;;;;0.10;0.10;;;;;;;;;;5127589;27;20057;-55
2023/09/28 01:04:43;;;;;;;0.10;0.10;;;;;;;;;;5127970;28;20055;-55
2023/09/28 01:07:11;;;;;;;0.10;0.10;;;;;;;;;;5128441;28;20077;-55
2023/09/28 01:09:38;;;;;;;0.10;0.10;;;;;;;;;;5127685;28;20486;-55
2023/09/28 01:12:06;;;;;;;0.10;0.10;;;;;;;;;;5127585;28;20063;-55
2023/09/28 01:14:34;;;;;;;0.10;0.10;;;;;;;;;;5127646;28;20141;-55
2023/09/28 01:17:00;;;;;;;0.10;0.10;;;;;;;;;;5128337;28;20051;-54
2023/09/28 01:19:27;;;;;;;0.10;0.10;;;;;;;;;;5126976;28;20050;-55
2023/09/28 01:21:52;;;;;;;0.10;0.10;;;;;;;;;;5128231;28;20536;-55
2023/09/28 01:24:18;;;;;;;0.10;0.10;;;;;;;;;;5127644;28;20050;-55
2023/09/28 01:26:43;;;;;;;0.10;0.10;;;;;;;;;;5127779;28;20047;-55
2023/09/28 01:29:10;;;;;;;0.10;0.10;;;;;;;;;;5128483;28;20047;-55
2023/09/28 01:31:35;;;;;;;0.20;0.20;;;;;;;;;;5126812;27;20063;-55
2023/09/28 01:34:01;;;;;;;0.10;0.10;;;;;;;;;;5127932;28;20443;-56
2023/09/28 01:36:26;;;;;;;0.10;0.10;;;;;;;;;;5128474;28;20157;-55
2023/09/28 01:38:56;;;;;;;0.10;0.10;;;;;;;;;;5127974;28;20058;-55
2023/09/28 01:41:21;;;;;;;0.10;0.10;;;;;;;;;;5126837;28;20499;-55
2023/09/28 01:43:47;;;;;;;0.10;0.10;;;;;;;;;;5127115;28;20062;-55
2023/09/28 01:46:13;;;;;;;0.10;0.10;;;;;;;;;;5127381;28;20143;-54
2023/09/28 01:48:38;;;;;;;0.10;0.10;;;;;;;;;;5127340;27;20065;-55
2023/09/28 01:51:04;;;;;;;0.10;0.10;;;;;;;;;;5126861;28;20055;-55
2023/09/28 01:53:29;;;;;;;0.10;0.10;;;;;;;;;;5127099;28;20039;-55
2023/09/28 01:55:58;;;;;;;0.10;0.10;;;;;;;;;;5127322;28;20051;-55
2023/09/28 01:58:25;;;;;;;0.10;0.10;;;;;;;;;;5127340;28;20043;-55
2023/09/28 02:00:51;;;;;;;0.10;0.10;;;;;;;;;;5132058;27;20131;-55
2023/09/28 02:03:17;;;;;;;0.10;0.10;;;;;;;;;;5127581;28;20059;-56
2023/09/28 02:05:42;;;;;;;0.10;0.10;;;;;;;;;;5127227;28;20051;-55
2023/09/28 02:08:08;;;;;;;0.13;0.13;;;;;;;;;;5126575;27;20519;-55
2023/09/28 02:10:33;;;;;;;0.10;0.10;;;;;;;;;;5127392;28;20065;-55
2023/09/28 02:12:59;;;;;;;0.10;0.10;;;;;;;;;;5127133;28;20100;-55
2023/09/28 02:15:25;;;;;;;0.10;0.10;;;;;;;;;;5126659;28;20468;-55
2023/09/28 02:17:50;;;;;;;0.10;0.10;;;;;;;;;;5126744;28;20043;-55
2023/09/28 02:20:19;;;;;;;0.10;0.10;;;;;;;;;;5127104;28;20050;-55
2023/09/28 02:22:46;;;;;;;0.17;0.17;;;;;;;;;;5126608;28;20403;-55
2023/09/28 02:25:17;;;;;;;0.10;0.10;;;;;;;;;;5126622;28;20475;-55
2023/09/28 02:27:43;;;;;;;0.13;0.10;;;;;;;;;;5126338;28;20077;-55
2023/09/28 02:30:11;;;;;;;0.10;0.10;;;;;;;;;;5127072;28;20039;-55
2023/09/28 02:32:38;;;;;;;0.10;0.10;;;;;;;;;;5119828;27;20039;-55
2023/09/28 02:35:06;;;;;;;0.10;0.10;;;;;;;;;;5126766;28;20051;-55
2023/09/28 02:37:31;;;;;;;;;;;;;;;;;;5127625;28;20094;-55
2023/09/28 02:39:57;;;;;;;0.10;0.10;;;;;;;;;;5127222;28;19919;-55
2023/09/28 02:42:23;;;;;;;0.10;0.10;;;;;;;;;;5126430;28;20047;-54
2023/09/28 02:44:48;;;;;;;0.10;0.10;;;;;;;;;;5126420;28;20054;-54
2023/09/28 02:47:14;;;;;;;0.10;0.10;;;;;;;;;;5126898;28;20368;-55
2023/09/28 02:49:40;;;;;;;0.20;0.20;;;;;;;;;;5126577;27;20187;-55
2023/09/28 02:52:06;;;;;;;0.65;0.22;;;;;;;;;;5127330;28;20043;-55
2023/09/28 02:54:31;;;;;;;0.10;0.10;;;;;;;;;;5126367;28;20476;-55
2023/09/28 02:56:57;;;;;;;0.10;0.10;;;;;;;;;;5127630;28;20054;-55
2023/09/28 02:59:23;;;;;;;0.10;0.10;;;;;;;;;;5127046;28;20104;-55
2023/09/28 03:01:49;;;;;;;0.10;0.10;;;;;;;;;;5133409;27;20051;-55
2023/09/28 03:04:16;;;;;;;0.20;0.20;;;;;;;;;;5126680;28;20150;-55
2023/09/28 03:06:41;;;;;;;0.10;0.10;;;;;;;;;;5126638;28;20043;-55
2023/09/28 03:09:11;;;;;;;0.10;0.10;;;;;;;;;;5126677;28;20372;-55
2023/09/28 03:11:37;;;;;;;0.10;0.10;;;;;;;;;;5126749;28;20090;-55
2023/09/28 03:14:03;;;;;;;0.10;0.10;;;;;;;;;;5125819;28;20052;-54
2023/09/28 03:16:29;;;;;;;0.20;0.20;;;;;;;;;;5126437;28;20151;-55
2023/09/28 03:18:57;;;;;;;0.10;0.10;;;;;;;;;;5126210;27;20047;-55
2023/09/28 03:21:22;;;;;;;0.10;0.10;;;;;;;;;;5129237;28;20483;-55
2023/09/28 03:23:49;;;;;;;0.20;0.20;;;;;;;;;;5129801;28;20514;-55
2023/09/28 03:26:16;;;;;;;0.10;0.10;;;;;;;;;;5129862;28;20489;-55
2023/09/28 03:28:41;;;;;;;0.10;0.10;;;;;;;;;;5130026;28;20343;-55
2023/09/28 03:31:07;;;;;;;0.10;0.10;;;;;;;;;;5124701;27;20608;-55
2023/09/28 03:33:32;;;;;;;0.10;0.10;;;;;;;;;;5129475;28;20137;-55
2023/09/28 03:35:58;;;;;;;0.28;0.17;;;;;;;;;;5130277;28;20058;-55
2023/09/28 03:38:24;;;;;;;0.15;0.15;;;;;;;;;;5129844;28;20434;-55
2023/09/28 03:40:49;;;;;;;0.10;0.10;;;;;;;;;;5129890;28;20077;-55
2023/09/28 03:43:15;;;;;;;0.10;0.10;;;;;;;;;;5129903;28;20660;-54
2023/09/28 03:45:41;;;;;;;0.10;0.10;;;;;;;;;;5129508;28;20047;-55
2023/09/28 03:48:07;;;;;;;0.10;0.10;;;;;;;;;;5129266;28;20054;-55
2023/09/28 03:50:32;;;;;;;0.10;0.10;;;;;;;;;;5130290;28;20346;-55
2023/09/28 03:52:58;;;;;;;0.10;0.10;;;;;;;;;;5130059;28;20152;-55
2023/09/28 03:55:23;;;;;;;0.10;0.10;;;;;;;;;;5129834;28;20094;-55
2023/09/28 03:57:50;;;;;;;0.17;0.17;;;;;;;;;;5129058;28;20334;-55
2023/09/28 04:00:17;;;;;;;0.10;0.10;;;;;;;;;;5129106;28;20050;-55
2023/09/28 04:02:44;;;;;;;0.10;0.10;;;;;;;;;;5120492;28;20043;-55
2023/09/28 04:05:10;;;;;;;0.20;0.20;;;;;;;;;;5128330;28;20096;-55
2023/09/28 04:07:36;;;;;;;0.10;0.10;;;;;;;;;;5128916;28;20043;-55
2023/09/28 04:10:03;;;;;;;0.20;0.20;;;;;;;;;;5129097;28;20051;-55
2023/09/28 04:12:28;;;;;;;0.10;0.10;;;;;;;;;;5128775;28;20101;-54
2023/09/28 04:14:54;;;;;;;0.10;0.10;;;;;;;;;;5128763;28;20051;-55
2023/09/28 04:17:20;;;;;;;0.10;0.10;;;;;;;;;;5128821;28;20039;-55
2023/09/28 04:19:46;;;;;;;0.17;0.17;;;;;;;;;;5128390;28;20483;-55
2023/09/28 04:22:12;;;;;;;0.10;0.10;;;;;;;;;;5128690;28;20483;-55
2023/09/28 04:24:37;;;;;;;0.10;0.10;;;;;;;;;;5128431;28;20499;-55
2023/09/28 04:27:03;;;;;;;0.10;0.10;;;;;;;;;;5129270;28;20648;-55
2023/09/28 04:29:28;;;;;;;0.10;0.10;;;;;;;;;;5128321;28;20051;-55
2023/09/28 04:31:54;;;;;;;0.10;0.10;;;;;;;;;;5124511;27;20054;-55
2023/09/28 04:34:20;;;;;;;0.10;0.10;;;;;;;;;;5128746;28;20124;-55
2023/09/28 04:36:45;;;;;;;0.10;0.10;;;;;;;;;;5128958;28;20047;-55
2023/09/28 04:39:11;;;;;;;0.10;0.10;;;;;;;;;;5128770;28;20035;-55
2023/09/28 04:41:37;;;;;;;0.10;0.10;;;;;;;;;;5128709;28;20166;-55
2023/09/28 04:44:05;;;;;;;0.10;0.10;;;;;;;;;;5128228;28;20530;-55
2023/09/28 04:46:31;;;;;;;0.10;0.10;;;;;;;;;;5128553;28;20047;-55
2023/09/28 04:48:56;;;;;;;0.10;0.10;;;;;;;;;;5128539;27;20311;-55
2023/09/28 04:51:22;;;;;;;0.10;0.10;;;;;;;;;;5128980;28;20047;-55
2023/09/28 04:53:48;;;;;;;0.10;0.10;;;;;;;;;;5128574;28;20047;-53
2023/09/28 04:56:15;;;;;;;0.10;0.10;;;;;;;;;;5129046;28;20098;-55
2023/09/28 04:58:41;;;;;;;0.17;0.17;;;;;;;;;;5128893;28;20502;-55
2023/09/28 05:01:07;;;;;;;0.10;0.10;;;;;;;;;;5114469;27;20079;-55
2023/09/28 05:03:33;;;;;;;0.10;0.10;;;;;;;;;;5121265;28;20047;-55
2023/09/28 05:05:59;;;;;;;0.10;0.10;;;;;;;;;;5128203;28;20051;-55
2023/09/28 05:08:24;;;;;;;0.10;0.10;;;;;;;;;;5128573;28;20553;-55
2023/09/28 05:10:50;;;;;;;0.10;0.10;;;;;;;;;;5128348;28;20123;-55
2023/09/28 05:13:16;;;;;;;0.10;0.10;;;;;;;;;;5127773;28;20043;-54
2023/09/28 05:15:42;;;;;;;0.10;0.10;;;;;;;;;;5128490;28;20047;-55
2023/09/28 05:18:07;;;;;;;0.10;0.10;;;;;;;;;;5127873;28;20351;-55
2023/09/28 05:20:33;;;;;;;0.10;0.10;;;;;;;;;;5128519;28;20047;-55
2023/09/28 05:22:59;;;;;;;0.10;0.10;;;;;;;;;;5127768;28;20407;-55
2023/09/28 05:25:25;;;;;;;0.10;0.10;;;;;;;;;;5127519;28;20055;-55
2023/09/28 05:27:51;;;;;;;0.10;0.10;;;;;;;;;;5127011;28;20047;-55
2023/09/28 05:30:17;;;;;;;0.10;0.10;;;;;;;;;;5128083;28;20058;-46
2023/09/28 05:32:43;;;;;;;0.22;0.22;;;;;;;;;;5125588;27;20047;-55
2023/09/28 05:35:08;;;;;;;0.10;0.10;;;;;;;;;;5125228;28;20460;-55
2023/09/28 05:37:34;;;;;;;0.10;0.10;;;;;;;;;;5125982;28;20347;-55
2023/09/28 05:40:00;;;;;;;0.17;0.17;;;;;;;;;;5127537;28;20047;-55
2023/09/28 05:42:26;;;;;;;0.10;0.10;;;;;;;;;;5125882;27;20066;-55
2023/09/28 05:44:52;;;;;;;0.10;0.10;;;;;;;;;;5127146;28;20495;-54
2023/09/28 05:47:20;;;;;;;0.10;0.10;;;;;;;;;;5125532;27;20043;-55
2023/09/28 05:49:46;;;;;;;0.10;0.10;;;;;;;;;;5121038;27;20051;-55
2023/09/28 05:52:12;;;;;;;0.10;0.10;;;;;;;;;;5124757;28;20109;-55
2023/09/28 05:54:37;;;;;;;0.10;0.10;;;;;;;;;;5120819;27;20272;-55
2023/09/28 05:57:04;;;;;;;0.10;0.10;;;;;;;;;;5111459;27;20126;-55
2023/09/28 05:59:29;;;;;;;0.10;0.10;;;;;;;;;;5116337;27;20079;-55
2023/09/28 06:01:55;;;;;;;0.10;0.10;;;;;;;;;;5130725;27;20050;-55
2023/09/28 06:04:21;;;;;;;0.10;0.10;;;;;;;;;;5120493;27;20399;-55
2023/09/28 06:06:50;;;;;;;0.10;0.10;;;;;;;;;;5120212;27;20043;-55
2023/09/28 06:09:16;;;;;;;0.10;0.10;;;;;;;;;;5113764;28;20089;-55
2023/09/28 06:11:41;;;;;;;0.20;0.20;;;;;;;;;;5123814;28;20367;-54
2023/09/28 06:14:08;;;;;;;0.17;0.17;;;;;;;;;;5122558;28;20051;-54
2023/09/28 06:16:37;;;;;;;0.10;0.10;;;;;;;;;;5124387;28;20054;-54
2023/09/28 06:19:03;;;;;;;0.10;0.10;;;;;;;;;;5115961;28;20100;-54
2023/09/28 06:21:29;;;;;;;0.10;0.10;;;;;;;;;;5123712;28;20588;-54
2023/09/28 06:23:54;;;;;;;0.10;0.10;;;;;;;;;;5124256;28;20075;-55
2023/09/28 06:26:20;;;;;;;0.10;0.10;;;;;;;;;;5121329;27;20488;-55
2023/09/28 06:29:06;;;;;;;0.10;0.10;;;;;;;;;;5102659;27;20104;-55
2023/09/28 06:31:31;;;;;;;0.10;0.10;;;;;;;;;;5121338;27;20355;-55
2023/09/28 06:33:57;;;;;;;0.10;0.10;;;;;;;;;;5126379;27;20058;-55
2023/09/28 06:36:25;;;;;;;0.13;0.13;;;;;;;;;;5120230;27;20146;-55
2023/09/28 06:39:06;;;;;;;0.10;0.10;;;;;;;;;;5117437;27;20487;-55
2023/09/28 06:41:31;;;;;;;0.10;0.10;;;;;;;;;;5122306;27;20126;-55
2023/09/28 06:43:57;;;;;;;0.10;0.10;;;;;;;;;;5122469;27;20557;-55
2023/09/28 06:46:23;;;;;;;0.10;0.10;;;;;;;;;;5119361;28;20047;-55
2023/09/28 06:48:49;;;;;;;0.30;0.30;;;;;;;;;;5115985;27;20047;-55
2023/09/28 06:51:15;;;;;;;0.10;0.10;;;;;;;;;;5117562;27;20043;-55
2023/09/28 06:53:41;;;;;;;0.10;0.10;;;;;;;;;;5111713;27;20047;-55
2023/09/28 06:56:07;;;;;;;0.10;0.10;;;;;;;;;;5114521;27;20054;-55
2023/09/28 06:58:40;;;;;;;0.10;0.10;;;;;;;;;;5105712;27;20310;-55
2023/09/28 07:01:05;;;;;;;0.10;0.10;;;;;;;;;;5113674;27;20047;-55
2023/09/28 07:03:31;;;;;;;0.10;0.10;;;;;;;;;;5099797;27;20585;-54
2023/09/28 07:05:57;;;;;;;0.10;0.10;;;;;;;;;;5112577;27;20063;-55
2023/09/28 07:08:22;;;;;;;0.10;0.10;;;;;;;;;;5104901;27;20121;-55
2023/09/28 07:10:48;;;;;;;0.10;0.10;;;;;;;;;;5113859;27;20542;-55
2023/09/28 07:13:13;;;;;;;0.10;0.10;;;;;;;;;;5115575;27;20051;-55
2023/09/28 07:15:40;;;;;;;0.10;0.10;;;;;;;;;;5114063;28;20068;-55
2023/09/28 07:18:06;;;;;;;0.10;0.10;;;;;;;;;;5116059;27;20047;-55
2023/09/28 07:20:31;;;;;;;0.10;0.10;;;;;;;;;;5119754;28;20119;-55
2023/09/28 07:22:57;;;;;;;0.10;0.10;;;;;;;;;;5120305;27;20047;-55
2023/09/28 07:25:25;;;;;;;0.20;0.20;;;;;;;;;;5116926;27;20051;-56
2023/09/28 07:27:50;;;;;;;0.10;0.10;;;;;;;;;;5117012;27;20062;-55
2023/09/28 07:30:19;;;;;;;0.10;0.10;;;;;;;;;;5121554;27;20043;-55
2023/09/28 07:32:44;;;;;;;;;;;;;;;;;;5121576;27;20047;-54
2023/09/28 07:35:10;;;;;;;0.10;0.10;;;;;;;;;;5121594;27;19945;-54
2023/09/28 07:37:36;;;;;;;0.13;0.13;;;;;;;;;;5121990;27;20066;-55
2023/09/28 07:40:04;;;;;;;0.10;0.10;;;;;;;;;;5127157;27;20047;-55
2023/09/28 07:42:30;;;;;;;0.10;0.10;;;;;;;;;;5111824;27;20050;-55
2023/09/28 07:44:56;;;;;;;0.10;0.10;;;;;;;;;;5116667;27;20040;-55
2023/09/28 07:47:21;;;;;;;0.10;0.10;;;;;;;;;;5118283;27;20043;-55
2023/09/28 07:49:47;;;;;;;0.10;0.10;;;;;;;;;;5120667;27;20039;-55
2023/09/28 07:52:13;;;;;;;0.10;0.10;;;;;;;;;;5119954;27;20606;-55
2023/09/28 07:54:39;;;;;;;0.20;0.20;;;;;;;;;;5118199;28;20386;-55
2023/09/28 07:57:04;;;;;;;0.10;0.10;;;;;;;;;;5121007;27;20574;-55
2023/09/28 07:59:31;;;;;;;0.10;0.10;;;;;;;;;;5116959;27;20096;-55
2023/09/28 08:01:57;;;;;;;0.10;0.10;;;;;;;;;;5114536;27;20171;-54
2023/09/28 08:04:23;;;;;;;0.10;0.10;;;;;;;;;;5111677;27;20051;-54
2023/09/28 08:06:49;;;;;;;0.10;0.10;;;;;;;;;;5108234;27;20055;-55
2023/09/28 08:09:14;;;;;;;0.10;0.10;;;;;;;;;;5106071;27;20065;-55
2023/09/28 08:11:40;;;;;;;0.20;0.20;;;;;;;;;;5117233;27;20386;-54
2023/09/28 08:14:06;;;;;;;0.10;0.10;;;;;;;;;;5115194;27;20067;-55
2023/09/28 08:16:31;;;;;;;0.10;0.10;;;;;;;;;;5117040;27;20088;-55
2023/09/28 08:18:57;;;;;;;0.10;0.10;;;;;;;;;;5121067;27;20050;-55
2023/09/28 08:21:24;;;;;;;0.10;0.10;;;;;;;;;;5112046;27;20071;-55
2023/09/28 08:23:50;;;;;;;0.10;0.10;;;;;;;;;;5103915;27;20105;-55
2023/09/28 08:26:16;;;;;;;0.10;0.10;;;;;;;;;;5108458;27;20051;-54
2023/09/28 08:28:42;;;;;;;0.20;0.20;;;;;;;;;;5104892;27;20393;-45
2023/09/28 08:31:09;;;;;;;0.10;0.10;;;;;;;;;;5121872;27;20084;-55
2023/09/28 08:33:35;;;;;;;0.10;0.10;;;;;;;;;;5113707;27;20047;-55
2023/09/28 08:36:01;;;;;;;0.20;0.20;;;;;;;;;;5115459;27;20050;-55
2023/09/28 08:38:26;;;;;;;0.10;0.10;;;;;;;;;;5111887;27;20050;-55
2023/09/28 08:40:58;;;;;;;0.10;0.10;;;;;;;;;;5121484;27;20062;-55
2023/09/28 08:43:25;;;;;;;0.10;0.10;;;;;;;;;;5092415;27;20051;-55
2023/09/28 08:45:51;;;;;;;0.10;0.10;;;;;;;;;;5112565;27;20074;-55
2023/09/28 08:48:19;;;;;;;0.10;0.10;;;;;;;;;;5120879;27;20290;-55
2023/09/28 08:50:45;;;;;;;;;;;;;;;;;;5105856;27;20113;-55
2023/09/28 08:53:11;;;;;;;0.10;0.10;;;;;;;;;;5109103;27;19954;-55
2023/09/28 08:55:38;;;;;;;0.10;0.10;;;;;;;;;;5109186;27;20855;-55
2023/09/28 08:58:04;;;;;;;0.10;0.10;;;;;;;;;;5111010;27;20232;-55
2023/09/28 09:00:30;;;;;;;0.10;0.10;;;;;;;;;;5111992;27;20100;-54
2023/09/28 09:02:56;;;;;;;0.10;0.10;;;;;;;;;;5108519;27;20448;-54
2023/09/28 09:05:22;;;;;;;0.17;0.17;;;;;;;;;;5105905;27;20143;-55
2023/09/28 09:07:50;;;;;;;0.10;0.10;;;;;;;;;;5108701;27;20079;-55
2023/09/28 09:10:17;;;;;;;0.10;0.10;;;;;;;;;;5107396;27;20058;-55
2023/09/28 09:12:43;;;;;;;0.10;0.10;;;;;;;;;;5103406;27;20552;-55
2023/09/28 09:15:09;;;;;;;0.10;0.10;;;;;;;;;;5104465;27;20055;-55
2023/09/28 09:17:35;;;;;;;0.20;0.20;;;;;;;;;;5103995;27;20127;-55
2023/09/28 09:20:01;;;;;;;0.10;0.10;;;;;;;;;;5101912;27;20688;-55
2023/09/28 09:22:28;;;;;;;0.10;0.10;;;;;;;;;;5105549;27;21108;-55
2023/09/28 09:24:57;;;;;;;0.10;0.10;;;;;;;;;;5108527;27;20055;-49
2023/09/28 09:27:25;;;;;;;0.10;0.10;;;;;;;;;;5103717;27;21097;-55
2023/09/28 09:29:50;;;;;;;0.10;0.10;;;;;;;;;;5102182;27;20550;-54
2023/09/28 09:32:20;;;;;;;0.10;0.10;;;;;;;;;;5099047;27;20051;-54
2023/09/28 09:34:46;;;;;;;0.10;0.10;;;;;;;;;;5095195;27;20062;-55
2023/09/28 09:37:12;;;;;;;0.10;0.10;;;;;;;;;;5102945;27;20043;-54
2023/09/28 09:39:39;;;;;;;0.10;0.10;;;;;;;;;;5113945;27;20047;-55
2023/09/28 09:42:04;;;;;;;0.10;0.10;;;;;;;;;;5109183;27;20077;-55
2023/09/28 09:44:30;;;;;;;0.10;0.10;;;;;;;;;;5112955;27;20480;-55
2023/09/28 09:46:56;;;;;;;0.10;0.10;;;;;;;;;;5114476;27;20526;-55
2023/09/28 09:49:24;;;;;;;0.10;0.10;;;;;;;;;;5116938;27;20050;-55
2023/09/28 09:51:50;;;;;;;0.10;0.10;;;;;;;;;;5114711;27;20308;-55
2023/09/28 09:54:16;;;;;;;0.10;0.10;;;;;;;;;;5112702;27;20103;-55
2023/09/28 09:56:43;;;;;;;0.10;0.10;;;;;;;;;;5114474;27;20523;-55
2023/09/28 09:59:11;;;;;;;0.10;0.10;;;;;;;;;;5115447;27;20368;-54
2023/09/28 10:01:39;;;;;;;0.10;0.10;;;;;;;;;;5119124;27;20047;-55
2023/09/28 10:04:05;;;;;;;;;;;;;;;;;;5117063;27;20066;-55
2023/09/28 10:06:31;;;;;;;0.10;0.10;;;;;;;;;;5117248;27;19919;-55
2023/09/28 10:08:57;;;;;;;0.10;0.10;;;;;;;;;;5120261;27;20043;-55
2023/09/28 10:11:24;;;;;;;0.10;0.10;;;;;;;;;;5118438;27;20565;-55
2023/09/28 10:13:50;;;;;;;0.10;0.10;;;;;;;;;;5122162;27;20448;-55
2023/09/28 10:16:17;;;;;;;0.20;0.20;;;;;;;;;;5120007;27;20046;-55
2023/09/28 10:18:43;;;;;;;0.10;0.10;;;;;;;;;;5118779;27;20594;-55
2023/09/28 10:21:09;;;;;;;0.10;0.10;;;;;;;;;;5117706;27;20119;-55
2023/09/28 10:23:35;;;;;;;0.10;0.10;;;;;;;;;;5115305;27;20467;-55
2023/09/28 10:26:16;;;;;;;0.10;0.10;;;;;;;;;;5120161;27;20092;-54
2023/09/28 10:29:03;;;;;;;0.10;0.10;;;;;;;;;;5115528;27;20191;-55
2023/09/28 10:31:30;;;;;;;0.20;0.20;;;;;;;;;;5106412;27;20058;-55
2023/09/28 10:34:20;;;;;;;0.10;0.10;;;;;;;;;;5097829;27;20160;-55
2023/09/28 10:37:18;;;;;;;0.10;0.10;;;;;;;;;;5121231;28;20463;-54
2023/09/28 10:39:47;;;;;;;0.10;0.10;;;;;;;;;;5095603;27;20062;-55
2023/09/28 10:42:15;;;;;;;0.20;0.20;;;;;;;;;;5101167;27;20039;-54
2023/09/28 10:44:46;;;;;;;0.10;0.10;;;;;;;;;;5109356;27;20071;-55
2023/09/28 10:47:12;;;;;;;0.10;0.10;;;;;;;;;;5112789;27;20051;-55
2023/09/28 10:49:37;;;;;;;0.10;0.10;;;;;;;;;;5113384;27;20050;-55
2023/09/28 10:52:03;;;;;;;0.10;0.10;;;;;;;;;;5114901;27;20107;-55
2023/09/28 10:54:29;;;;;;;0.10;0.10;;;;;;;;;;5116271;27;20503;-55
2023/09/28 10:56:55;;;;;;;0.10;0.10;;;;;;;;;;5117299;27;20047;-55
2023/09/28 10:59:21;;;;;;;0.10;0.10;;;;;;;;;;5115457;27;20043;-54
2023/09/28 11:01:47;;;;;;;0.10;0.10;;;;;;;;;;5121764;27;20054;-55
2023/09/28 11:04:14;;;;;;;0.10;0.10;;;;;;;;;;5120016;27;20039;-55
2023/09/28 11:06:43;;;;;;;0.20;0.20;;;;;;;;;;5113971;27;20127;-55
2023/09/28 11:09:11;;;;;;;0.10;0.10;;;;;;;;;;5118105;27;20043;-55
2023/09/28 11:11:38;;;;;;;0.10;0.10;;;;;;;;;;5111360;27;20047;-55
2023/09/28 11:14:05;;;;;;;0.10;0.10;;;;;;;;;;5116484;27;20326;-54
2023/09/28 11:16:33;;;;;;;0.10;0.10;;;;;;;;;;5110562;27;20510;-55
2023/09/28 11:18:59;;;;;;;0.10;0.10;;;;;;;;;;5090279;27;20055;-55
2023/09/28 11:21:26;;;;;;;0.10;0.10;;;;;;;;;;5101130;27;20476;-55
2023/09/28 11:23:52;;;;;;;0.10;0.10;;;;;;;;;;5116728;27;20086;-55
2023/09/28 11:26:18;;;;;;;0.10;0.10;;;;;;;;;;5114341;27;20539;-45
2023/09/28 11:28:44;;;;;;;0.10;0.10;;;;;;;;;;5102127;27;20075;-51
2023/09/28 11:31:12;;;;;;;0.20;0.20;;;;;;;;;;5111844;27;20226;-50
2023/09/28 11:33:39;;;;;;;0.10;0.10;;;;;;;;;;5117648;27;20070;-51
2023/09/28 11:36:05;;;;;;;0.45;0.25;;;;;;;;;;5102096;27;20071;-51
2023/09/28 11:38:32;;;;;;;0.10;0.10;;;;;;;;;;5106254;27;20043;-51
2023/09/28 11:40:58;;;;;;;0.13;0.13;;;;;;;;;;5102073;27;20063;-52
2023/09/28 11:43:23;;;;;;;0.10;0.10;;;;;;;;;;5095447;27;20062;-50
2023/09/28 11:45:49;;;;;;;0.10;0.10;;;;;;;;;;5102640;27;20043;-51
2023/09/28 11:48:17;;;;;;;0.10;0.10;;;;;;;;;;5101512;27;20395;-51
2023/09/28 11:50:43;;;;;;;0.10;0.10;;;;;;;;;;5111910;27;20055;-52
2023/09/28 11:53:08;;;;;;;0.10;0.10;;;;;;;;;;5124035;28;20148;-51
2023/09/28 11:55:35;;;;;;;0.10;0.10;;;;;;;;;;5123218;27;20632;-52
2023/09/28 11:58:02;;;;;;;0.10;0.10;;;;;;;;;;5108402;28;20046;-51
2023/09/28 12:00:28;;;;;;;0.10;0.10;;;;;;;;;;5115893;27;20115;-52
2023/09/28 12:02:54;;;;;;;0.10;0.10;;;;;;;;;;5132352;27;20081;-51
2023/09/28 12:05:21;;;;;;;0.10;0.10;;;;;;;;;;5123538;28;20126;-52
2023/09/28 12:07:46;;;;;;;0.13;0.13;;;;;;;;;;5124239;27;20191;-52
2023/09/28 12:10:12;;;;;;;0.10;0.10;;;;;;;;;;5112106;28;20039;-52
2023/09/28 12:12:39;;;;;;;0.10;0.10;;;;;;;;;;5113212;27;20058;-51
2023/09/28 12:15:12;;;;;;;0.10;0.10;;;;;;;;;;5124134;27;20352;-51
2023/09/28 12:17:38;;;;;;;0.10;0.10;;;;;;;;;;5120554;27;20047;-52
2023/09/28 12:20:04;;;;;;;0.20;0.20;;;;;;;;;;5127681;27;20051;-50
2023/09/28 12:22:29;;;;;;;0.10;0.10;;;;;;;;;;5111049;28;20071;-52
2023/09/28 12:24:55;;;;;;;0.35;0.35;;;;;;;;;;5117249;27;20054;-50
2023/09/28 12:27:21;;;;;;;0.17;0.17;;;;;;;;;;5122628;27;20155;-52
2023/09/28 12:29:47;;;;;;;0.10;0.10;;;;;;;;;;5118874;28;20043;-52
2023/09/28 12:32:12;;;;;;;0.10;0.10;;;;;;;;;;5110775;28;20043;-52
2023/09/28 12:34:38;;;;;;;0.10;0.10;;;;;;;;;;5112270;27;20047;-53
2023/09/28 12:37:04;;;;;;;0.10;0.10;;;;;;;;;;5124985;27;20054;-52
2023/09/28 12:39:32;;;;;;;0.10;0.10;;;;;;;;;;5115859;28;20135;-52
2023/09/28 12:41:58;;;;;;;0.10;0.10;;;;;;;;;;5105666;27;20076;-50
2023/09/28 12:44:25;;;;;;;0.10;0.10;;;;;;;;;;5111923;28;20050;-51
2023/09/28 12:46:51;;;;;;;0.10;0.10;;;;;;;;;;5112605;28;20092;-53
2023/09/28 12:49:18;;;;;;;0.10;0.10;;;;;;;;;;5126099;28;20069;-52
2023/09/28 12:51:46;;;;;;;0.10;0.10;;;;;;;;;;5127800;27;20070;-53
2023/09/28 12:54:12;;;;;;;;;;;;;;;;;;5127081;28;20046;-52
2023/09/28 12:56:38;;;;;;;0.10;0.10;;;;;;;;;;5127087;28;19954;-52
2023/09/28 12:59:03;;;;;;;0.10;0.10;;;;;;;;;;5124979;27;20131;-49
2023/09/28 13:01:29;;;;;;;0.10;0.10;;;;;;;;;;5126503;27;20074;-52
2023/09/28 13:03:55;;;;;;;0.10;0.10;;;;;;;;;;5122777;28;20055;-50
2023/09/28 13:06:21;;;;;;;0.10;0.10;;;;;;;;;;5128486;28;20490;-51
2023/09/28 13:08:47;;;;;;;0.28;0.28;;;;;;;;;;5126590;27;20076;-51
2023/09/28 13:11:17;;;;;;;0.10;0.10;;;;;;;;;;5127156;27;20051;-51
2023/09/28 13:13:43;;;;;;;0.10;0.10;;;;;;;;;;5106781;28;20044;-51
2023/09/28 13:16:09;;;;;;;0.10;0.10;;;;;;;;;;5107894;27;20043;-51
2023/09/28 13:18:34;;;;;;;0.10;0.10;;;;;;;;;;5120751;27;20067;-50
2023/09/28 13:21:00;;;;;;;0.10;0.10;;;;;;;;;;5126111;27;20100;-51
2023/09/28 13:23:25;;;;;;;0.10;0.10;;;;;;;;;;5113359;27;20446;-51
2023/09/28 13:25:52;;;;;;;0.10;0.10;;;;;;;;;;5125367;27;20474;-52
2023/09/28 13:28:18;;;;;;;0.10;0.10;;;;;;;;;;5127329;27;20523;-50
2023/09/28 13:30:43;;;;;;;0.10;0.10;;;;;;;;;;5125257;27;20259;-51
2023/09/28 13:33:10;;;;;;;0.10;0.10;;;;;;;;;;5123624;27;20566;-51
2023/09/28 13:35:36;;;;;;;0.10;0.10;;;;;;;;;;5109760;28;20056;-52
2023/09/28 13:38:02;;;;;;;0.10;0.10;;;;;;;;;;5112514;28;20495;-51
2023/09/28 13:40:33;;;;;;;0.10;0.10;;;;;;;;;;5112674;28;20446;-51
2023/09/28 13:42:59;;;;;;;0.10;0.10;;;;;;;;;;5127320;28;20051;-51
2023/09/28 13:45:25;;;;;;;0.10;0.10;;;;;;;;;;5123542;27;20043;-50
2023/09/28 13:47:53;;;;;;;0.10;0.10;;;;;;;;;;5123023;27;20055;-52
2023/09/28 13:50:19;;;;;;;0.10;0.10;;;;;;;;;;5107629;28;20048;-51
2023/09/28 13:52:45;;;;;;;0.10;0.10;;;;;;;;;;5107579;28;20388;-51
2023/09/28 13:55:15;;;;;;;0.10;0.10;;;;;;;;;;5111512;27;20124;-51
2023/09/28 13:57:43;;;;;;;0.17;0.17;;;;;;;;;;5116331;27;20046;-51
2023/09/28 14:00:14;;;;;;;0.10;0.10;;;;;;;;;;5124430;28;20504;-51
2023/09/28 14:02:41;;;;;;;0.10;0.10;;;;;;;;;;5124730;28;20039;-51
2023/09/28 14:05:07;;;;;;;0.10;0.10;;;;;;;;;;5126467;27;20054;-51
2023/09/28 14:07:33;;;;;;;0.10;0.10;;;;;;;;;;5126653;28;20050;-51
2023/09/28 14:09:59;;;;;;;0.10;0.10;;;;;;;;;;5106245;28;20047;-51
2023/09/28 14:12:27;;;;;;;0.10;0.10;;;;;;;;;;5115569;28;20138;-51
2023/09/28 14:14:54;;;;;;;0.10;0.10;;;;;;;;;;5115938;28;20547;-51
2023/09/28 14:17:20;;;;;;;0.15;0.15;;;;;;;;;;5107077;28;20536;-51
2023/09/28 14:20:06;;;;;;;0.10;0.10;;;;;;;;;;5105920;28;20135;-51
2023/09/28 14:22:33;;;;;;;0.10;0.10;;;;;;;;;;5105935;28;20048;-51
2023/09/28 14:24:58;;;;;;;0.10;0.10;;;;;;;;;;5108731;28;20047;-51
2023/09/28 14:27:24;;;;;;;0.10;0.10;;;;;;;;;;5106432;28;20096;-51
2023/09/28 14:29:49;;;;;;;0.10;0.10;;;;;;;;;;5126073;28;20047;-51
2023/09/28 14:32:15;;;;;;;0.10;0.10;;;;;;;;;;5111704;28;20052;-51
2023/09/28 14:34:41;;;;;;;0.10;0.10;;;;;;;;;;5121360;28;20051;-51
2023/09/28 14:37:07;;;;;;;0.10;0.10;;;;;;;;;;5126910;28;20047;-51
2023/09/28 14:39:33;;;;;;;0.10;0.10;;;;;;;;;;5122688;28;20047;-51
2023/09/28 14:41:59;;;;;;;0.10;0.10;;;;;;;;;;5126679;28;20059;-50